createdAt,value
2018-09-10T00:01:55.453Z,21.97
2018-09-10T00:05:00.601Z,29.80
2018-09-10T00:08:05.207Z,29.73
2018-09-10T00:11:10.106Z,31.53
2018-09-10T00:14:14.510Z,28.65
2018-09-10T00:17:20.045Z,27.47
2018-09-10T00:20:24.549Z,15.80
2018-09-10T00:23:29.057Z,6.67
2018-09-10T00:26:33.601Z,8.23
2018-09-10T00:29:37.687Z,6.57
2018-09-10T00:32:42.346Z,4.33
2018-09-10T00:35:46.681Z,5.83
2018-09-10T00:38:51.974Z,5.40
2018-09-10T00:41:56.366Z,6.87
2018-09-10T00:45:01.666Z,4.70
2018-09-10T00:48:06.807Z,5.10
2018-09-10T00:51:11.149Z,6.50
2018-09-10T00:54:15.727Z,5.57
2018-09-10T00:57:20.064Z,4.87
2018-09-10T01:00:24.632Z,5.00
2018-09-10T01:03:28.999Z,7.37
2018-09-10T01:06:33.512Z,7.13
2018-09-10T01:09:38.254Z,5.17
2018-09-10T01:12:42.992Z,4.67
2018-09-10T01:15:47.389Z,4.73
2018-09-10T01:18:52.214Z,3.87
2018-09-10T01:21:56.592Z,4.47
2018-09-10T01:25:00.976Z,6.47
2018-09-10T01:28:05.381Z,4.60
2018-09-10T01:31:09.750Z,4.60
2018-09-10T01:34:19.300Z,4.73
2018-09-10T01:37:24.081Z,3.93
2018-09-10T01:40:28.586Z,6.70
2018-09-10T01:43:32.965Z,5.90
2018-09-10T01:46:37.306Z,6.10
2018-09-10T01:49:41.670Z,5.87
2018-09-10T01:52:45.774Z,4.97
2018-09-10T01:55:50.674Z,5.17
2018-09-10T01:58:55.079Z,5.93
2018-09-10T02:01:59.437Z,6.10
2018-09-10T02:05:03.810Z,5.93
2018-09-10T02:08:08.350Z,4.73
2018-09-10T02:11:12.814Z,4.67
2018-09-10T02:14:17.184Z,8.63
2018-09-10T02:17:21.592Z,10.40
2018-09-10T02:20:25.958Z,9.10
2018-09-10T02:23:30.306Z,9.47
2018-09-10T02:26:34.660Z,11.47
2018-09-10T02:29:39.028Z,6.10
2018-09-10T02:32:43.397Z,7.60
2018-09-10T02:35:47.843Z,9.03
2018-09-10T02:38:52.317Z,8.20
2018-09-10T02:41:57.087Z,4.53
2018-09-10T02:45:01.454Z,7.83
2018-09-10T02:48:06.098Z,3.93
2018-09-10T02:51:10.505Z,5.50
2018-09-10T02:54:14.872Z,6.93
2018-09-10T02:57:19.528Z,4.23
2018-09-10T03:00:25.581Z,5.30
2018-09-10T03:03:30.177Z,4.90
2018-09-10T03:06:34.579Z,6.43
2018-09-10T03:09:38.929Z,5.60
2018-09-10T03:12:43.373Z,5.07
2018-09-10T03:15:47.756Z,5.23
2018-09-10T03:18:52.173Z,5.27
2018-09-10T03:21:56.687Z,9.53
2018-09-10T03:25:01.261Z,6.10
2018-09-10T03:28:05.616Z,10.03
2018-09-10T03:31:10.461Z,4.53
2018-09-10T03:34:15.446Z,4.53
2018-09-10T03:37:19.938Z,5.10
2018-09-10T03:40:24.705Z,6.20
2018-09-10T03:43:29.157Z,12.43
2018-09-10T03:46:34.117Z,9.47
2018-09-10T03:49:38.650Z,11.77
2018-09-10T03:52:42.990Z,5.40
2018-09-10T03:55:47.327Z,7.80
2018-09-10T03:58:52.355Z,8.07
2018-09-10T04:01:56.708Z,10.53
2018-09-10T04:05:01.361Z,13.73
2018-09-10T04:08:05.891Z,23.03
2018-09-10T04:11:10.614Z,31.80
2018-09-10T04:14:15.069Z,19.07
2018-09-10T04:17:19.651Z,13.97
2018-09-10T04:20:23.931Z,8.10
2018-09-10T04:23:28.309Z,9.53
2018-09-10T04:26:32.677Z,9.47
2018-09-10T04:29:37.077Z,9.60
2018-09-10T04:32:41.919Z,8.37
2018-09-10T04:35:46.343Z,13.63
2018-09-10T04:38:50.719Z,12.30
2018-09-10T04:41:55.098Z,12.80
2018-09-10T04:45:00.324Z,9.30
2018-09-10T04:48:04.701Z,9.77
2018-09-10T04:51:09.105Z,12.13
2018-09-10T04:54:13.838Z,17.37
2018-09-10T04:57:18.318Z,9.67
2018-09-10T05:00:22.858Z,4.77
2018-09-10T05:03:27.417Z,6.00
2018-09-10T05:06:31.818Z,7.47
2018-09-10T05:09:36.263Z,3.60
2018-09-10T05:12:44.192Z,8.67
2018-09-10T05:15:48.790Z,9.35
2018-09-10T05:18:53.149Z,7.27
2018-09-10T05:21:57.900Z,6.13
2018-09-10T05:25:02.236Z,8.40
2018-09-10T05:28:06.599Z,6.20
2018-09-10T05:31:10.963Z,9.90
2018-09-10T05:34:15.374Z,8.13
2018-09-10T05:37:19.836Z,5.37
2018-09-10T05:40:24.214Z,7.13
2018-09-10T05:43:29.170Z,5.27
2018-09-10T05:46:33.772Z,5.83
2018-09-10T05:49:38.126Z,4.77
2018-09-10T05:52:42.489Z,7.03
2018-09-10T05:55:47.594Z,6.97
2018-09-10T05:58:52.096Z,7.37
2018-09-10T06:01:56.525Z,6.20
2018-09-10T06:05:01.762Z,5.67
2018-09-10T06:08:07.943Z,5.53
2018-09-10T06:11:12.421Z,5.50
2018-09-10T06:14:16.834Z,4.57
2018-09-10T06:17:21.253Z,5.37
2018-09-10T06:20:25.782Z,3.80
2018-09-10T06:23:30.315Z,3.93
2018-09-10T06:26:34.990Z,4.53
2018-09-10T06:29:39.557Z,5.57
2018-09-10T06:32:44.887Z,4.53
2018-09-10T06:35:49.384Z,4.63
2018-09-10T06:41:58.753Z,2.60
2018-09-10T06:45:03.181Z,4.90
2018-09-10T06:48:07.647Z,3.13
2018-09-10T06:51:12.059Z,4.63
2018-09-10T06:54:16.514Z,5.43
2018-09-10T06:57:20.886Z,3.30
2018-09-10T07:00:25.536Z,4.33
2018-09-10T07:03:29.970Z,2.63
2018-09-10T07:06:34.370Z,2.43
2018-09-10T07:09:38.717Z,3.03
2018-09-10T07:12:43.121Z,6.27
2018-09-10T07:15:48.157Z,3.17
2018-09-10T07:18:52.831Z,4.87
2018-09-10T07:21:57.806Z,2.60
2018-09-10T07:25:02.316Z,4.03
2018-09-10T07:28:06.741Z,5.03
2018-09-10T07:31:11.349Z,6.97
2018-09-10T07:34:16.042Z,4.57
2018-09-10T07:37:20.502Z,4.67
2018-09-10T07:40:24.895Z,4.40
2018-09-10T07:43:29.340Z,4.70
2018-09-10T07:46:33.647Z,2.67
2018-09-10T07:49:38.079Z,3.03
2018-09-10T07:52:42.448Z,2.67
2018-09-10T07:55:47.324Z,5.50
2018-09-10T07:58:51.672Z,3.13
2018-09-10T08:01:56.182Z,2.87
2018-09-10T08:05:00.846Z,4.23
2018-09-10T08:08:06.179Z,7.37
2018-09-10T08:11:11.031Z,4.63
2018-09-10T08:14:16.205Z,3.17
2018-09-10T08:17:20.712Z,2.97
2018-09-10T08:20:25.717Z,4.50
2018-09-10T08:23:30.290Z,3.63
2018-09-10T08:26:35.025Z,3.47
2018-09-10T08:29:39.514Z,5.10
2018-09-10T08:32:44.104Z,4.50
2018-09-10T08:35:48.556Z,3.07
2018-09-10T08:38:53.035Z,4.60
2018-09-10T08:41:57.475Z,4.27
2018-09-10T08:45:01.833Z,2.90
2018-09-10T08:48:08.272Z,3.07
2018-09-10T08:51:12.775Z,6.57
2018-09-10T08:54:18.193Z,2.47
2018-09-10T08:57:22.721Z,2.77
2018-09-10T09:00:27.832Z,3.73
2018-09-10T09:03:32.411Z,3.17
2018-09-10T09:06:36.885Z,3.20
2018-09-10T09:09:41.338Z,3.70
2018-09-10T09:12:46.075Z,3.20
2018-09-10T09:15:50.581Z,2.70
2018-09-10T09:18:55.082Z,3.00
2018-09-10T09:21:59.566Z,2.67
2018-09-10T09:25:04.341Z,3.53
2018-09-10T09:28:09.020Z,3.07
2018-09-10T09:31:13.724Z,2.67
2018-09-10T09:34:19.328Z,2.77
2018-09-10T09:37:29.525Z,3.17
2018-09-10T09:40:39.084Z,3.07
2018-09-10T09:43:48.794Z,4.70
2018-09-10T09:46:53.348Z,3.00
2018-09-10T09:49:57.856Z,2.33
2018-09-10T09:53:02.380Z,3.60
2018-09-10T09:56:07.263Z,2.97
2018-09-10T09:59:11.740Z,2.33
2018-09-10T10:02:25.249Z,3.53
2018-09-10T10:05:29.895Z,5.33
2018-09-10T10:08:35.098Z,7.57
2018-09-10T10:11:40.278Z,3.83
2018-09-10T10:14:45.507Z,5.13
2018-09-10T10:17:50.102Z,6.03
2018-09-10T10:20:54.611Z,2.60
2018-09-10T10:23:59.409Z,3.77
2018-09-10T10:27:05.819Z,2.60
2018-09-10T10:30:10.353Z,2.50
2018-09-10T10:33:14.769Z,2.27
2018-09-10T10:36:19.229Z,2.40
2018-09-10T10:39:24.517Z,2.50
2018-09-10T10:42:29.949Z,4.20
2018-09-10T10:45:35.992Z,2.03
2018-09-10T10:48:42.241Z,2.00
2018-09-10T10:51:47.469Z,2.70
2018-09-10T10:54:52.835Z,2.13
2018-09-10T10:57:57.297Z,2.37
2018-09-10T11:01:01.822Z,2.57
2018-09-10T11:04:07.411Z,2.63
2018-09-10T11:07:13.435Z,3.33
2018-09-10T11:10:18.439Z,2.00
2018-09-10T11:13:23.798Z,2.17
2018-09-10T11:16:28.439Z,2.00
2018-09-10T11:19:33.051Z,2.33
2018-09-10T11:22:38.118Z,1.67
2018-09-10T11:25:42.578Z,1.90
2018-09-10T11:28:47.613Z,2.20
2018-09-10T11:31:52.171Z,2.43
2018-09-10T11:34:57.350Z,2.00
2018-09-10T11:38:01.957Z,1.80
2018-09-10T11:41:06.701Z,2.83
2018-09-10T11:44:11.486Z,2.10
2018-09-10T11:47:16.058Z,2.77
2018-09-10T11:50:20.866Z,2.00
2018-09-10T11:53:25.638Z,2.63
2018-09-10T11:56:32.029Z,2.17
2018-09-10T11:59:37.289Z,2.20
2018-09-10T12:02:43.062Z,1.97
2018-09-10T12:05:47.729Z,2.00
2018-09-10T12:08:52.751Z,3.53
2018-09-10T12:11:57.642Z,2.67
2018-09-10T12:15:02.158Z,2.73
2018-09-10T12:18:06.825Z,3.40
2018-09-10T12:21:11.497Z,3.60
2018-09-10T12:24:15.968Z,2.50
2018-09-10T12:27:21.715Z,2.20
2018-09-10T12:30:26.233Z,1.37
2018-09-10T12:33:31.278Z,1.30
2018-09-10T12:36:36.680Z,2.30
2018-09-10T12:39:42.048Z,1.40
2018-09-10T12:42:46.602Z,2.33
2018-09-10T12:45:53.712Z,2.80
2018-09-10T12:48:58.397Z,2.60
2018-09-10T12:52:03.710Z,1.70
2018-09-10T12:55:08.415Z,1.30
2018-09-10T12:58:13.172Z,1.33
2018-09-10T13:01:20.406Z,1.63
2018-09-10T13:04:26.718Z,1.87
2018-09-10T13:07:32.452Z,2.47
2018-09-10T13:10:37.333Z,6.43
2018-09-10T13:13:43.370Z,1.90
2018-09-10T13:16:47.991Z,2.13
2018-09-10T13:19:52.732Z,1.97
2018-09-10T13:22:58.653Z,1.70
2018-09-10T13:26:03.411Z,2.80
2018-09-10T13:29:08.775Z,2.30
2018-09-10T13:32:14.207Z,3.03
2018-09-10T13:35:18.906Z,2.08
2018-09-10T13:38:24.820Z,2.07
2018-09-10T13:41:30.336Z,6.07
2018-09-10T13:44:37.392Z,2.60
2018-09-10T13:47:42.737Z,1.63
2018-09-10T13:50:47.838Z,1.47
2018-09-10T13:53:53.165Z,2.90
2018-09-10T13:56:57.880Z,1.37
2018-09-10T14:00:02.939Z,1.47
2018-09-10T14:03:08.063Z,2.07
2018-09-10T14:06:13.248Z,1.70
2018-09-10T14:09:18.111Z,1.87
2018-09-10T14:12:22.716Z,1.93
2018-09-10T14:15:28.441Z,1.47
2018-09-10T14:18:34.692Z,21.27
2018-09-10T14:21:39.534Z,4.67
2018-09-10T14:24:45.218Z,2.73
2018-09-10T14:27:51.063Z,1.37
2018-09-10T14:30:56.691Z,4.23
2018-09-10T14:34:02.106Z,2.10
2018-09-10T14:37:06.843Z,3.03
2018-09-10T14:40:12.273Z,1.60
2018-09-10T14:43:17.836Z,1.87
2018-09-10T14:46:41.178Z,3.10
2018-09-10T14:49:45.772Z,2.60
2018-09-10T14:52:52.248Z,3.07
2018-09-10T14:55:56.688Z,1.90
2018-09-10T14:59:01.642Z,2.50
2018-09-10T15:02:06.179Z,3.00
2018-09-10T15:05:10.649Z,1.87
2018-09-10T15:08:15.606Z,2.33
2018-09-10T15:11:20.369Z,2.45
2018-09-10T15:14:24.926Z,1.67
2018-09-10T15:17:29.407Z,1.57
2018-09-10T15:20:34.319Z,2.67
2018-09-10T15:23:39.241Z,1.67
2018-09-10T15:26:44.507Z,1.53
2018-09-10T15:29:50.768Z,1.37
2018-09-10T15:32:56.243Z,0.90
2018-09-10T15:36:02.704Z,1.00
2018-09-10T15:39:09.064Z,1.53
2018-09-10T15:42:13.885Z,1.43
2018-09-10T15:45:19.625Z,2.77
2018-09-10T15:48:24.375Z,1.40
2018-09-10T15:51:29.216Z,1.40
2018-09-10T15:54:34.249Z,3.63
2018-09-10T15:57:38.613Z,2.23
2018-09-10T16:00:43.359Z,1.63
2018-09-10T16:03:48.979Z,1.67
2018-09-10T16:06:54.202Z,1.40
2018-09-10T16:09:59.935Z,1.40
2018-09-10T16:13:04.564Z,1.63
2018-09-10T16:16:10.577Z,1.53
2018-09-10T16:19:15.972Z,1.63
2018-09-10T16:22:21.485Z,1.63
2018-09-10T16:25:27.288Z,3.13
2018-09-10T16:28:32.324Z,2.67
2018-09-10T16:31:37.122Z,2.60
2018-09-10T16:34:41.570Z,2.67
2018-09-10T16:37:46.215Z,3.83
2018-09-10T16:40:52.171Z,1.97
2018-09-10T16:43:56.801Z,2.73
2018-09-10T16:47:01.267Z,2.70
2018-09-10T16:50:05.810Z,1.45
2018-09-10T16:53:10.754Z,1.63
2018-09-10T16:56:15.628Z,1.20
2018-09-10T16:59:20.309Z,1.27
2018-09-10T17:02:24.737Z,1.23
2018-09-10T17:05:29.222Z,5.73
2018-09-10T17:08:33.811Z,2.00
2018-09-10T17:11:38.597Z,1.97
2018-09-10T17:14:43.190Z,2.90
2018-09-10T17:17:47.932Z,2.33
2018-09-10T17:20:52.521Z,2.97
2018-09-10T17:23:56.984Z,12.97
2018-09-10T17:27:01.653Z,9.20
2018-09-10T17:30:07.381Z,12.57
2018-09-10T17:33:12.953Z,12.40
2018-09-10T17:36:18.356Z,9.20
2018-09-10T17:39:23.703Z,8.87
2018-09-10T17:42:28.621Z,6.43
2018-09-10T17:45:33.712Z,4.70
2018-09-10T17:48:38.778Z,7.70
2018-09-10T17:51:44.008Z,3.03
2018-09-10T17:54:48.576Z,3.80
2018-09-10T17:57:52.937Z,1.50
2018-09-10T18:00:58.558Z,4.90
2018-09-10T18:04:03.660Z,2.90
2018-09-10T18:07:09.130Z,3.27
2018-09-10T18:10:13.674Z,23.03
2018-09-10T18:13:18.183Z,17.03
2018-09-10T18:16:22.791Z,16.47
2018-09-10T18:19:27.437Z,7.17
2018-09-10T18:22:32.183Z,8.50
2018-09-10T18:25:38.171Z,8.37
2018-09-10T18:28:42.789Z,8.93
2018-09-10T18:31:48.258Z,9.77
2018-09-10T18:34:53.675Z,6.87
2018-09-10T18:37:59.147Z,4.33
2018-09-10T18:41:04.176Z,15.10
2018-09-10T18:44:09.145Z,20.17
2018-09-10T18:47:15.127Z,22.00
2018-09-10T18:50:19.606Z,16.03
2018-09-10T18:53:24.683Z,7.27
2018-09-10T18:56:29.267Z,6.70
2018-09-10T18:59:35.686Z,5.50
2018-09-10T19:02:40.184Z,8.00
2018-09-10T19:05:44.953Z,5.03
2018-09-10T19:08:50.759Z,7.53
2018-09-10T19:11:55.747Z,5.27
2018-09-10T19:15:01.052Z,3.00
2018-09-10T19:18:05.707Z,4.23
2018-09-10T19:21:10.948Z,4.80
2018-09-10T19:24:15.510Z,4.00
2018-09-10T19:27:20.126Z,10.13
2018-09-10T19:30:24.636Z,4.43
2018-09-10T19:33:29.124Z,4.80
2018-09-10T19:36:33.847Z,3.73
2018-09-10T19:39:38.296Z,7.27
2018-09-10T19:42:43.039Z,6.50
2018-09-10T19:45:47.761Z,10.03
2018-09-10T19:48:52.318Z,7.63
2018-09-10T19:51:56.852Z,7.00
2018-09-10T19:55:06.824Z,4.43
2018-09-10T19:58:11.314Z,2.50
2018-09-10T20:01:16.081Z,3.67
2018-09-10T20:04:20.620Z,3.00
2018-09-10T20:07:25.335Z,4.23
2018-09-10T20:10:29.955Z,4.53
2018-09-10T20:13:34.537Z,4.77
2018-09-10T20:16:39.963Z,9.63
2018-09-10T20:19:47.144Z,6.90
2018-09-10T20:22:51.779Z,4.53
2018-09-10T20:25:57.070Z,3.07
2018-09-10T20:29:01.817Z,3.50
2018-09-10T20:32:06.687Z,1.83
2018-09-10T20:35:11.134Z,2.77
2018-09-10T20:38:15.800Z,6.67
2018-09-10T20:41:20.276Z,3.83
2018-09-10T20:44:24.958Z,3.02
2018-09-10T20:47:29.774Z,4.90
2018-09-10T20:50:34.607Z,6.00
2018-09-10T20:53:39.271Z,4.17
2018-09-10T20:56:44.233Z,4.27
2018-09-10T20:59:48.766Z,7.97
2018-09-10T21:02:53.288Z,2.67
2018-09-10T21:05:57.980Z,2.10
2018-09-10T21:09:02.422Z,3.63
2018-09-10T21:12:07.148Z,3.50
2018-09-10T21:15:11.581Z,2.93
2018-09-10T21:18:16.080Z,2.20
2018-09-10T21:21:20.588Z,5.40
2018-09-10T21:24:24.969Z,2.53
2018-09-10T21:27:30.174Z,2.90
2018-09-10T21:30:34.622Z,2.67
2018-09-10T21:33:40.158Z,3.07
2018-09-10T21:36:44.641Z,3.47
2018-09-10T21:39:49.095Z,7.17
2018-09-10T21:42:53.604Z,14.57
2018-09-10T21:45:58.141Z,20.43
2018-09-10T21:49:02.830Z,9.90
2018-09-10T21:52:07.391Z,9.13
2018-09-10T21:55:11.912Z,14.87
2018-09-10T21:58:16.281Z,7.03
2018-09-10T22:01:20.744Z,7.70
2018-09-10T22:04:25.204Z,6.80
2018-09-10T22:07:29.945Z,6.37
2018-09-10T22:10:34.417Z,9.77
2018-09-10T22:13:40.099Z,9.27
2018-09-10T22:16:46.325Z,13.57
2018-09-10T22:19:50.756Z,10.72
2018-09-10T22:22:55.420Z,12.17
2018-09-10T22:25:59.827Z,4.33
2018-09-10T22:29:05.809Z,5.07
2018-09-10T22:32:10.965Z,2.23
2018-09-10T22:35:15.583Z,3.03
2018-09-10T22:38:19.980Z,3.63
2018-09-10T22:41:24.380Z,3.77
2018-09-10T22:44:29.474Z,4.85
2018-09-10T22:47:33.853Z,3.70
2018-09-10T22:50:38.217Z,3.30
2018-09-10T22:53:42.738Z,4.67
2018-09-10T22:56:47.325Z,6.70
2018-09-10T22:59:51.751Z,5.20
2018-09-10T23:02:56.137Z,4.97
2018-09-10T23:06:00.702Z,6.93
2018-09-10T23:09:07.361Z,11.10
2018-09-10T23:12:11.826Z,8.47
2018-09-10T23:15:16.343Z,5.17
2018-09-10T23:18:21.616Z,7.00
2018-09-10T23:21:26.318Z,5.07
2018-09-10T23:24:31.476Z,2.97
2018-09-10T23:27:36.610Z,3.43
2018-09-10T23:30:41.985Z,2.30
2018-09-10T23:33:46.870Z,2.47
2018-09-10T23:36:51.258Z,1.97
2018-09-10T23:39:55.639Z,2.27
2018-09-10T23:43:00.352Z,3.37
2018-09-10T23:46:04.851Z,2.47
2018-09-10T23:49:09.663Z,2.60
2018-09-10T23:52:14.021Z,2.67
2018-09-10T23:55:18.763Z,2.77
2018-09-10T23:58:23.126Z,2.53
